Weather at Hakodate Airport

Public forecast

Using degrees Celsius for public forecast. Weather courtesy of forecast.io.

Current aviation weather report (METAR) for Hakodate Airport

Retrieved 2022/05/22 02:00 UTC (5 minutes ago):

RJCH 220200Z 15005KT 120V180 9999 FEW012 SCT050 BKN090 17/12 Q1007

Aviation forecast (TAF) for Hakodate Airport

Retrieved 2022-05-22 00:30 UTC (2 hours ago):

TAF RJCH 212312Z 2200/2306 14006KT 9999 FEW015 BKN030 TEMPO 2212/2221 4000 BR FEW005 BKN008 BECMG 2221/2300 22005KT